Terminal Aerodrome Forecast
Issued by NWS

Home | Current Version | Previous Version | Text Only | Print | Product List | Glossary On
Versions: 1 2 3 4 5 6 7 8 9 10 11 12 13 14 15 16 17 18 19
882
FTPA31 PHFO 250733 AAA
TAFHLI
TAF AMD
PHLI 250733Z 2508/2606 34012KT 5SM SHRA VCTS SCT010 BKN015 OVC025CB
     FM251300 13010KT P6SM VCSH SCT025 BKN035
     FM252000 13012KT P6SM SCT025 BKN045=

USA.gov is the U.S. government's official web portal to all federal, state and local government web resources and services.